sensor_id;sensor_type;location;lat;lon;timestamp;temperature;humidity
10042;DHT22;5061;49.068;12.058;2024-02-21T00:00:11;5.30;99.90
10042;DHT22;5061;49.068;12.058;2024-02-21T00:03:32;5.30;99.90
10042;DHT22;5061;49.068;12.058;2024-02-21T00:06:52;5.20;99.90
10042;DHT22;5061;49.068;12.058;2024-02-21T00:10:13;5.20;99.90
10042;DHT22;5061;49.068;12.058;2024-02-21T00:13:33;5.30;99.90
10042;DHT22;5061;49.068;12.058;2024-02-21T00:16:54;5.20;99.90
10042;DHT22;5061;49.068;12.058;2024-02-21T00:20:15;5.30;99.90
10042;DHT22;5061;49.068;12.058;2024-02-21T00:23:35;5.20;99.90
10042;DHT22;5061;49.068;12.058;2024-02-21T00:26:56;5.30;99.90
10042;DHT22;5061;49.068;12.058;2024-02-21T00:30:17;5.30;99.90
10042;DHT22;5061;49.068;12.058;2024-02-21T00:33:37;5.30;99.90
10042;DHT22;5061;49.068;12.058;2024-02-21T00:36:58;5.30;99.90
10042;DHT22;5061;49.068;12.058;2024-02-21T00:40:19;5.30;99.90
10042;DHT22;5061;49.068;12.058;2024-02-21T00:43:41;5.30;99.90
10042;DHT22;5061;49.068;12.058;2024-02-21T00:47:02;5.30;99.90
10042;DHT22;5061;49.068;12.058;2024-02-21T00:50:23;5.30;99.90
10042;DHT22;5061;49.068;12.058;2024-02-21T00:53:43;5.30;99.90
10042;DHT22;5061;49.068;12.058;2024-02-21T00:57:04;5.30;99.90
10042;DHT22;5061;49.068;12.058;2024-02-21T01:00:25;5.20;99.90
10042;DHT22;5061;49.068;12.058;2024-02-21T01:03:45;5.20;99.90
10042;DHT22;5061;49.068;12.058;2024-02-21T01:07:06;5.20;99.90
10042;DHT22;5061;49.068;12.058;2024-02-21T01:10:27;5.20;99.90
10042;DHT22;5061;49.068;12.058;2024-02-21T01:13:47;5.20;99.90
10042;DHT22;5061;49.068;12.058;2024-02-21T01:17:08;5.20;99.90
10042;DHT22;5061;49.068;12.058;2024-02-21T01:20:28;5.30;99.90
10042;DHT22;5061;49.068;12.058;2024-02-21T01:23:49;5.30;99.90
10042;DHT22;5061;49.068;12.058;2024-02-21T01:27:09;5.30;99.90
10042;DHT22;5061;49.068;12.058;2024-02-21T01:30:30;5.30;99.90
10042;DHT22;5061;49.068;12.058;2024-02-21T01:33:51;5.30;99.90
10042;DHT22;5061;49.068;12.058;2024-02-21T01:37:11;5.30;99.90
10042;DHT22;5061;49.068;12.058;2024-02-21T01:40:32;5.30;99.90
10042;DHT22;5061;49.068;12.058;2024-02-21T01:43:52;5.30;99.90
10042;DHT22;5061;49.068;12.058;2024-02-21T01:47:13;5.30;99.90
10042;DHT22;5061;49.068;12.058;2024-02-21T01:50:34;5.20;99.90
10042;DHT22;5061;49.068;12.058;2024-02-21T01:53:57;5.20;99.90
10042;DHT22;5061;49.068;12.058;2024-02-21T01:57:18;5.20;99.90
10042;DHT22;5061;49.068;12.058;2024-02-21T02:00:41;5.10;99.90
10042;DHT22;5061;49.068;12.058;2024-02-21T02:04:02;5.10;99.90
10042;DHT22;5061;49.068;12.058;2024-02-21T02:07:25;5.10;99.90
10042;DHT22;5061;49.068;12.058;2024-02-21T02:10:46;5.10;99.90
10042;DHT22;5061;49.068;12.058;2024-02-21T02:14:06;5.10;99.90
10042;DHT22;5061;49.068;12.058;2024-02-21T02:17:27;5.00;99.90
10042;DHT22;5061;49.068;12.058;2024-02-21T02:20:48;5.00;99.90
10042;DHT22;5061;49.068;12.058;2024-02-21T02:24:09;5.10;99.90
10042;DHT22;5061;49.068;12.058;2024-02-21T02:27:29;5.10;99.90
10042;DHT22;5061;49.068;12.058;2024-02-21T02:30:50;5.10;99.90
10042;DHT22;5061;49.068;12.058;2024-02-21T02:34:11;5.10;99.90
10042;DHT22;5061;49.068;12.058;2024-02-21T02:37:31;5.10;99.90
10042;DHT22;5061;49.068;12.058;2024-02-21T02:40:52;5.10;99.90
10042;DHT22;5061;49.068;12.058;2024-02-21T02:44:12;5.10;99.90
10042;DHT22;5061;49.068;12.058;2024-02-21T02:47:33;5.10;99.90
10042;DHT22;5061;49.068;12.058;2024-02-21T02:50:55;5.10;99.90
10042;DHT22;5061;49.068;12.058;2024-02-21T02:54:15;5.10;99.90
10042;DHT22;5061;49.068;12.058;2024-02-21T02:57:36;5.10;99.90
10042;DHT22;5061;49.068;12.058;2024-02-21T03:00:57;5.10;99.90
10042;DHT22;5061;49.068;12.058;2024-02-21T03:04:17;5.10;99.90
10042;DHT22;5061;49.068;12.058;2024-02-21T03:07:38;5.10;99.90
10042;DHT22;5061;49.068;12.058;2024-02-21T03:10:58;5.10;99.90
10042;DHT22;5061;49.068;12.058;2024-02-21T03:14:19;5.10;99.90
10042;DHT22;5061;49.068;12.058;2024-02-21T03:17:41;5.10;99.90
10042;DHT22;5061;49.068;12.058;2024-02-21T03:21:01;5.10;99.90
10042;DHT22;5061;49.068;12.058;2024-02-21T03:24:22;5.10;99.90
10042;DHT22;5061;49.068;12.058;2024-02-21T03:27:43;5.10;99.90
10042;DHT22;5061;49.068;12.058;2024-02-21T03:31:04;5.10;99.90
10042;DHT22;5061;49.068;12.058;2024-02-21T03:34:24;5.10;99.90
10042;DHT22;5061;49.068;12.058;2024-02-21T03:37:45;5.10;99.90
10042;DHT22;5061;49.068;12.058;2024-02-21T03:41:06;5.10;99.90
10042;DHT22;5061;49.068;12.058;2024-02-21T03:44:27;5.10;99.90
10042;DHT22;5061;49.068;12.058;2024-02-21T03:47:47;5.10;99.90
10042;DHT22;5061;49.068;12.058;2024-02-21T03:51:08;5.00;99.90
10042;DHT22;5061;49.068;12.058;2024-02-21T03:54:28;5.00;99.90
10042;DHT22;5061;49.068;12.058;2024-02-21T03:57:49;5.00;99.90
10042;DHT22;5061;49.068;12.058;2024-02-21T04:01:10;5.00;99.90
10042;DHT22;5061;49.068;12.058;2024-02-21T04:04:30;5.00;99.90
10042;DHT22;5061;49.068;12.058;2024-02-21T04:07:51;5.00;99.90
10042;DHT22;5061;49.068;12.058;2024-02-21T04:11:12;5.00;99.90
10042;DHT22;5061;49.068;12.058;2024-02-21T04:14:32;5.00;99.90
10042;DHT22;5061;49.068;12.058;2024-02-21T04:17:53;4.90;99.90
10042;DHT22;5061;49.068;12.058;2024-02-21T04:21:17;5.00;99.90
10042;DHT22;5061;49.068;12.058;2024-02-21T04:24:37;5.00;99.90
10042;DHT22;5061;49.068;12.058;2024-02-21T04:27:58;5.00;99.90
10042;DHT22;5061;49.068;12.058;2024-02-21T04:31:19;5.10;99.90
10042;DHT22;5061;49.068;12.058;2024-02-21T04:34:41;5.00;99.90
10042;DHT22;5061;49.068;12.058;2024-02-21T04:38:01;5.00;99.90
10042;DHT22;5061;49.068;12.058;2024-02-21T04:41:22;5.00;99.90
10042;DHT22;5061;49.068;12.058;2024-02-21T04:44:43;5.00;99.90
10042;DHT22;5061;49.068;12.058;2024-02-21T04:48:04;5.00;99.90
10042;DHT22;5061;49.068;12.058;2024-02-21T04:51:24;5.00;99.90
10042;DHT22;5061;49.068;12.058;2024-02-21T04:54:45;5.10;99.90
10042;DHT22;5061;49.068;12.058;2024-02-21T04:58:06;5.00;99.90
10042;DHT22;5061;49.068;12.058;2024-02-21T05:01:28;5.00;99.90
10042;DHT22;5061;49.068;12.058;2024-02-21T05:04:48;5.00;99.90
10042;DHT22;5061;49.068;12.058;2024-02-21T05:08:09;5.00;99.90
10042;DHT22;5061;49.068;12.058;2024-02-21T05:11:31;5.00;99.90
10042;DHT22;5061;49.068;12.058;2024-02-21T05:14:51;5.00;99.90
10042;DHT22;5061;49.068;12.058;2024-02-21T05:18:13;5.00;99.90
10042;DHT22;5061;49.068;12.058;2024-02-21T05:21:34;5.10;99.90
10042;DHT22;5061;49.068;12.058;2024-02-21T05:24:54;5.10;99.90
10042;DHT22;5061;49.068;12.058;2024-02-21T05:28:16;5.00;99.90
10042;DHT22;5061;49.068;12.058;2024-02-21T05:35:13;5.10;99.90
10042;DHT22;5061;49.068;12.058;2024-02-21T05:38:34;5.10;99.90
10042;DHT22;5061;49.068;12.058;2024-02-21T05:41:55;5.10;99.90
10042;DHT22;5061;49.068;12.058;2024-02-21T05:45:16;5.10;99.90
10042;DHT22;5061;49.068;12.058;2024-02-21T05:48:36;5.10;99.90
10042;DHT22;5061;49.068;12.058;2024-02-21T05:51:57;5.10;99.90
10042;DHT22;5061;49.068;12.058;2024-02-21T05:55:18;5.10;99.90
10042;DHT22;5061;49.068;12.058;2024-02-21T05:58:39;5.10;99.90
10042;DHT22;5061;49.068;12.058;2024-02-21T06:01:59;5.10;99.90
10042;DHT22;5061;49.068;12.058;2024-02-21T06:05:20;5.10;99.90
10042;DHT22;5061;49.068;12.058;2024-02-21T06:08:41;5.10;99.90
10042;DHT22;5061;49.068;12.058;2024-02-21T06:12:02;5.10;99.90
10042;DHT22;5061;49.068;12.058;2024-02-21T06:15:22;5.10;99.90
10042;DHT22;5061;49.068;12.058;2024-02-21T06:18:43;5.10;99.90
10042;DHT22;5061;49.068;12.058;2024-02-21T06:22:04;5.00;99.90
10042;DHT22;5061;49.068;12.058;2024-02-21T06:25:28;5.00;99.90
10042;DHT22;5061;49.068;12.058;2024-02-21T06:28:48;5.00;99.90
10042;DHT22;5061;49.068;12.058;2024-02-21T06:32:09;5.00;99.90
10042;DHT22;5061;49.068;12.058;2024-02-21T06:35:29;5.00;99.90
10042;DHT22;5061;49.068;12.058;2024-02-21T06:38:50;5.00;99.90
10042;DHT22;5061;49.068;12.058;2024-02-21T06:42:11;5.00;99.90
10042;DHT22;5061;49.068;12.058;2024-02-21T06:45:31;5.00;99.90
10042;DHT22;5061;49.068;12.058;2024-02-21T06:48:52;5.10;99.90
10042;DHT22;5061;49.068;12.058;2024-02-21T06:52:13;5.10;99.90
10042;DHT22;5061;49.068;12.058;2024-02-21T06:55:36;5.10;99.90
10042;DHT22;5061;49.068;12.058;2024-02-21T06:58:57;5.20;99.90
10042;DHT22;5061;49.068;12.058;2024-02-21T07:02:18;5.20;99.90
10042;DHT22;5061;49.068;12.058;2024-02-21T07:05:38;5.20;99.90
10042;DHT22;5061;49.068;12.058;2024-02-21T07:08:59;5.20;99.90
10042;DHT22;5061;49.068;12.058;2024-02-21T07:12:20;5.20;99.90
10042;DHT22;5061;49.068;12.058;2024-02-21T07:15:40;5.20;99.90
10042;DHT22;5061;49.068;12.058;2024-02-21T07:19:02;5.20;99.90
10042;DHT22;5061;49.068;12.058;2024-02-21T07:22:23;5.20;99.90
10042;DHT22;5061;49.068;12.058;2024-02-21T07:25:43;5.20;99.90
10042;DHT22;5061;49.068;12.058;2024-02-21T07:29:04;5.10;99.90
10042;DHT22;5061;49.068;12.058;2024-02-21T07:32:24;5.10;99.90
10042;DHT22;5061;49.068;12.058;2024-02-21T07:35:45;5.10;99.90
10042;DHT22;5061;49.068;12.058;2024-02-21T07:39:06;5.20;99.90
10042;DHT22;5061;49.068;12.058;2024-02-21T07:42:26;5.20;99.90
10042;DHT22;5061;49.068;12.058;2024-02-21T07:45:47;5.20;99.90
10042;DHT22;5061;49.068;12.058;2024-02-21T07:49:07;5.30;99.90
10042;DHT22;5061;49.068;12.058;2024-02-21T07:52:29;5.30;99.90
10042;DHT22;5061;49.068;12.058;2024-02-21T07:55:49;5.30;99.90
10042;DHT22;5061;49.068;12.058;2024-02-21T07:59:10;5.30;99.90
10042;DHT22;5061;49.068;12.058;2024-02-21T08:02:31;5.40;99.90
10042;DHT22;5061;49.068;12.058;2024-02-21T08:05:51;5.50;99.90
10042;DHT22;5061;49.068;12.058;2024-02-21T08:09:12;5.50;99.90
10042;DHT22;5061;49.068;12.058;2024-02-21T08:12:33;5.50;99.90
10042;DHT22;5061;49.068;12.058;2024-02-21T08:15:54;5.50;99.90
10042;DHT22;5061;49.068;12.058;2024-02-21T08:19:14;5.50;99.90
10042;DHT22;5061;49.068;12.058;2024-02-21T08:22:37;5.50;99.90
10042;DHT22;5061;49.068;12.058;2024-02-21T08:25:58;5.50;99.90
10042;DHT22;5061;49.068;12.058;2024-02-21T08:29:19;5.60;99.90
10042;DHT22;5061;49.068;12.058;2024-02-21T08:32:39;5.60;99.90
10042;DHT22;5061;49.068;12.058;2024-02-21T08:36:00;5.60;99.90
10042;DHT22;5061;49.068;12.058;2024-02-21T08:39:21;5.60;99.90
10042;DHT22;5061;49.068;12.058;2024-02-21T08:42:41;5.70;99.90
10042;DHT22;5061;49.068;12.058;2024-02-21T08:46:02;5.70;99.90
10042;DHT22;5061;49.068;12.058;2024-02-21T08:49:23;5.80;99.90
10042;DHT22;5061;49.068;12.058;2024-02-21T08:52:43;5.80;99.90
10042;DHT22;5061;49.068;12.058;2024-02-21T08:56:04;5.90;99.90
10042;DHT22;5061;49.068;12.058;2024-02-21T08:59:25;6.00;99.90
10042;DHT22;5061;49.068;12.058;2024-02-21T09:02:46;6.00;99.90
10042;DHT22;5061;49.068;12.058;2024-02-21T09:06:07;6.00;99.90
10042;DHT22;5061;49.068;12.058;2024-02-21T09:09:28;6.10;99.90
10042;DHT22;5061;49.068;12.058;2024-02-21T09:12:49;6.10;99.90
10042;DHT22;5061;49.068;12.058;2024-02-21T09:16:10;6.20;99.90
10042;DHT22;5061;49.068;12.058;2024-02-21T09:19:30;6.30;99.90
10042;DHT22;5061;49.068;12.058;2024-02-21T09:22:51;6.30;99.90
10042;DHT22;5061;49.068;12.058;2024-02-21T09:26:12;6.40;99.90
10042;DHT22;5061;49.068;12.058;2024-02-21T09:29:36;6.40;99.90
10042;DHT22;5061;49.068;12.058;2024-02-21T09:32:57;6.50;99.90
10042;DHT22;5061;49.068;12.058;2024-02-21T09:36:20;6.50;99.90
10042;DHT22;5061;49.068;12.058;2024-02-21T09:39:41;6.60;99.90
10042;DHT22;5061;49.068;12.058;2024-02-21T09:43:03;6.70;99.90
10042;DHT22;5061;49.068;12.058;2024-02-21T09:46:40;6.70;99.90
10042;DHT22;5061;49.068;12.058;2024-02-21T09:50:04;6.80;99.90
10042;DHT22;5061;49.068;12.058;2024-02-21T09:53:26;6.80;99.90
10042;DHT22;5061;49.068;12.058;2024-02-21T09:56:47;6.90;99.90
10042;DHT22;5061;49.068;12.058;2024-02-21T10:00:08;7.00;99.90
10042;DHT22;5061;49.068;12.058;2024-02-21T10:03:29;7.10;99.90
10042;DHT22;5061;49.068;12.058;2024-02-21T10:06:50;7.10;99.90
10042;DHT22;5061;49.068;12.058;2024-02-21T10:10:11;7.20;99.90
10042;DHT22;5061;49.068;12.058;2024-02-21T10:13:32;7.20;99.90
10042;DHT22;5061;49.068;12.058;2024-02-21T10:16:59;7.30;99.90
10042;DHT22;5061;49.068;12.058;2024-02-21T10:20:19;7.40;99.90
10042;DHT22;5061;49.068;12.058;2024-02-21T10:23:47;7.50;99.90
10042;DHT22;5061;49.068;12.058;2024-02-21T10:27:09;7.60;99.90
10042;DHT22;5061;49.068;12.058;2024-02-21T10:30:31;7.60;99.90
10042;DHT22;5061;49.068;12.058;2024-02-21T10:33:58;7.80;99.90
10042;DHT22;5061;49.068;12.058;2024-02-21T10:37:23;8.00;99.90
10042;DHT22;5061;49.068;12.058;2024-02-21T10:40:44;8.10;99.90
10042;DHT22;5061;49.068;12.058;2024-02-21T10:44:08;8.20;99.90
10042;DHT22;5061;49.068;12.058;2024-02-21T10:47:32;8.30;99.90
10042;DHT22;5061;49.068;12.058;2024-02-21T10:50:57;8.40;99.90
10042;DHT22;5061;49.068;12.058;2024-02-21T10:54:45;8.50;99.90
10042;DHT22;5061;49.068;12.058;2024-02-21T10:58:10;8.60;99.90
10042;DHT22;5061;49.068;12.058;2024-02-21T11:01:31;8.60;99.90
10042;DHT22;5061;49.068;12.058;2024-02-21T11:04:53;8.70;99.90
10042;DHT22;5061;49.068;12.058;2024-02-21T11:08:15;8.70;99.90
10042;DHT22;5061;49.068;12.058;2024-02-21T11:11:39;8.80;99.90
10042;DHT22;5061;49.068;12.058;2024-02-21T11:15:06;8.90;99.90
10042;DHT22;5061;49.068;12.058;2024-02-21T11:18:27;9.10;99.90
10042;DHT22;5061;49.068;12.058;2024-02-21T11:21:48;9.20;99.90
10042;DHT22;5061;49.068;12.058;2024-02-21T11:25:08;9.20;99.90
10042;DHT22;5061;49.068;12.058;2024-02-21T11:28:32;9.30;99.90
10042;DHT22;5061;49.068;12.058;2024-02-21T11:31:53;9.30;99.90
10042;DHT22;5061;49.068;12.058;2024-02-21T11:35:19;9.40;99.90
10042;DHT22;5061;49.068;12.058;2024-02-21T11:38:40;9.50;99.90
10042;DHT22;5061;49.068;12.058;2024-02-21T11:42:02;9.50;99.90
10042;DHT22;5061;49.068;12.058;2024-02-21T11:45:25;9.60;99.90
10042;DHT22;5061;49.068;12.058;2024-02-21T11:48:46;9.60;99.90
10042;DHT22;5061;49.068;12.058;2024-02-21T11:52:10;9.70;99.90
10042;DHT22;5061;49.068;12.058;2024-02-21T11:55:31;9.70;99.90
10042;DHT22;5061;49.068;12.058;2024-02-21T11:58:51;9.80;99.90
10042;DHT22;5061;49.068;12.058;2024-02-21T12:02:12;9.80;99.90
10042;DHT22;5061;49.068;12.058;2024-02-21T12:05:33;9.90;99.90
10042;DHT22;5061;49.068;12.058;2024-02-21T12:08:57;9.90;99.90
10042;DHT22;5061;49.068;12.058;2024-02-21T12:12:20;10.00;99.90
10042;DHT22;5061;49.068;12.058;2024-02-21T12:15:41;10.10;99.90
10042;DHT22;5061;49.068;12.058;2024-02-21T12:19:02;10.20;99.90
10042;DHT22;5061;49.068;12.058;2024-02-21T12:22:25;10.20;99.90
10042;DHT22;5061;49.068;12.058;2024-02-21T12:25:45;10.30;99.90
10042;DHT22;5061;49.068;12.058;2024-02-21T12:29:06;10.30;99.90
10042;DHT22;5061;49.068;12.058;2024-02-21T12:32:29;10.40;99.90
10042;DHT22;5061;49.068;12.058;2024-02-21T12:35:50;10.50;99.90
10042;DHT22;5061;49.068;12.058;2024-02-21T12:39:11;10.60;99.90
10042;DHT22;5061;49.068;12.058;2024-02-21T12:42:31;10.70;99.90
10042;DHT22;5061;49.068;12.058;2024-02-21T12:45:52;10.70;99.90
10042;DHT22;5061;49.068;12.058;2024-02-21T12:49:16;10.80;99.90
10042;DHT22;5061;49.068;12.058;2024-02-21T12:52:37;10.80;99.90
10042;DHT22;5061;49.068;12.058;2024-02-21T12:55:57;10.90;99.90
10042;DHT22;5061;49.068;12.058;2024-02-21T12:59:18;11.00;99.90
10042;DHT22;5061;49.068;12.058;2024-02-21T13:02:38;11.00;99.90
10042;DHT22;5061;49.068;12.058;2024-02-21T13:05:59;11.10;99.90
10042;DHT22;5061;49.068;12.058;2024-02-21T13:09:19;11.10;99.90
10042;DHT22;5061;49.068;12.058;2024-02-21T13:12:40;11.10;99.90
10042;DHT22;5061;49.068;12.058;2024-02-21T13:16:01;11.10;99.90
10042;DHT22;5061;49.068;12.058;2024-02-21T13:19:22;11.10;99.90
10042;DHT22;5061;49.068;12.058;2024-02-21T13:22:43;11.20;99.90
10042;DHT22;5061;49.068;12.058;2024-02-21T13:26:03;11.20;99.90
10042;DHT22;5061;49.068;12.058;2024-02-21T13:29:24;11.30;99.90
10042;DHT22;5061;49.068;12.058;2024-02-21T13:32:45;11.30;99.90
10042;DHT22;5061;49.068;12.058;2024-02-21T13:36:08;11.40;99.90
10042;DHT22;5061;49.068;12.058;2024-02-21T13:39:30;11.50;99.90
10042;DHT22;5061;49.068;12.058;2024-02-21T13:42:55;11.60;99.90
10042;DHT22;5061;49.068;12.058;2024-02-21T13:46:15;11.80;99.90
10042;DHT22;5061;49.068;12.058;2024-02-21T13:49:36;11.80;99.90
10042;DHT22;5061;49.068;12.058;2024-02-21T13:52:57;11.70;99.90
10042;DHT22;5061;49.068;12.058;2024-02-21T13:56:18;11.60;99.90
10042;DHT22;5061;49.068;12.058;2024-02-21T13:59:39;11.60;99.90
10042;DHT22;5061;49.068;12.058;2024-02-21T14:03:00;11.50;99.90
10042;DHT22;5061;49.068;12.058;2024-02-21T14:06:21;11.50;99.90
10042;DHT22;5061;49.068;12.058;2024-02-21T14:09:42;11.50;99.90
10042;DHT22;5061;49.068;12.058;2024-02-21T14:13:03;11.40;99.90
10042;DHT22;5061;49.068;12.058;2024-02-21T14:16:23;11.40;99.90
10042;DHT22;5061;49.068;12.058;2024-02-21T14:19:44;11.40;99.90
10042;DHT22;5061;49.068;12.058;2024-02-21T14:23:04;11.40;99.90
10042;DHT22;5061;49.068;12.058;2024-02-21T14:26:25;11.40;99.90
10042;DHT22;5061;49.068;12.058;2024-02-21T14:29:46;11.40;99.90
10042;DHT22;5061;49.068;12.058;2024-02-21T14:33:06;11.40;99.90
10042;DHT22;5061;49.068;12.058;2024-02-21T14:36:28;11.50;99.90
10042;DHT22;5061;49.068;12.058;2024-02-21T14:39:48;11.50;99.90
10042;DHT22;5061;49.068;12.058;2024-02-21T14:43:09;11.50;99.90
10042;DHT22;5061;49.068;12.058;2024-02-21T14:46:30;11.60;99.90
10042;DHT22;5061;49.068;12.058;2024-02-21T14:49:50;11.60;99.90
10042;DHT22;5061;49.068;12.058;2024-02-21T14:53:12;11.60;99.90
10042;DHT22;5061;49.068;12.058;2024-02-21T14:56:32;11.60;99.90
10042;DHT22;5061;49.068;12.058;2024-02-21T14:59:53;11.50;99.90
10042;DHT22;5061;49.068;12.058;2024-02-21T15:03:17;11.50;99.90
10042;DHT22;5061;49.068;12.058;2024-02-21T15:06:41;11.40;99.90
10042;DHT22;5061;49.068;12.058;2024-02-21T15:10:02;11.30;99.90
10042;DHT22;5061;49.068;12.058;2024-02-21T15:13:23;11.30;99.90
10042;DHT22;5061;49.068;12.058;2024-02-21T15:16:44;11.20;99.90
10042;DHT22;5061;49.068;12.058;2024-02-21T15:20:05;11.10;99.90
10042;DHT22;5061;49.068;12.058;2024-02-21T15:23:29;11.00;99.90
10042;DHT22;5061;49.068;12.058;2024-02-21T15:26:50;10.90;99.90
10042;DHT22;5061;49.068;12.058;2024-02-21T15:30:11;10.80;99.90
10042;DHT22;5061;49.068;12.058;2024-02-21T15:33:32;10.70;99.90
10042;DHT22;5061;49.068;12.058;2024-02-21T15:36:53;10.60;99.90
10042;DHT22;5061;49.068;12.058;2024-02-21T15:40:13;10.50;99.90
10042;DHT22;5061;49.068;12.058;2024-02-21T15:43:35;10.40;99.90
10042;DHT22;5061;49.068;12.058;2024-02-21T15:46:57;10.30;99.90
10042;DHT22;5061;49.068;12.058;2024-02-21T15:50:18;10.30;99.90
10042;DHT22;5061;49.068;12.058;2024-02-21T15:53:39;10.20;99.90
10042;DHT22;5061;49.068;12.058;2024-02-21T15:57:05;10.10;99.90
10042;DHT22;5061;49.068;12.058;2024-02-21T16:00:27;10.00;99.90
10042;DHT22;5061;49.068;12.058;2024-02-21T16:03:48;10.00;99.90
10042;DHT22;5061;49.068;12.058;2024-02-21T16:07:09;9.90;99.90
10042;DHT22;5061;49.068;12.058;2024-02-21T16:10:29;9.80;99.90
10042;DHT22;5061;49.068;12.058;2024-02-21T16:13:50;9.70;99.90
10042;DHT22;5061;49.068;12.058;2024-02-21T16:17:11;9.60;99.90
10042;DHT22;5061;49.068;12.058;2024-02-21T16:20:33;9.60;99.90
10042;DHT22;5061;49.068;12.058;2024-02-21T16:23:53;9.60;99.90
10042;DHT22;5061;49.068;12.058;2024-02-21T16:27:14;9.40;99.90
10042;DHT22;5061;49.068;12.058;2024-02-21T16:30:36;9.40;99.90
10042;DHT22;5061;49.068;12.058;2024-02-21T16:33:56;9.30;99.90
10042;DHT22;5061;49.068;12.058;2024-02-21T16:37:18;9.20;99.90
10042;DHT22;5061;49.068;12.058;2024-02-21T16:40:38;9.20;99.90
10042;DHT22;5061;49.068;12.058;2024-02-21T16:44:00;9.10;99.90
10042;DHT22;5061;49.068;12.058;2024-02-21T16:47:21;9.10;99.90
10042;DHT22;5061;49.068;12.058;2024-02-21T16:50:44;9.00;99.90
10042;DHT22;5061;49.068;12.058;2024-02-21T16:54:05;8.90;99.90
10042;DHT22;5061;49.068;12.058;2024-02-21T16:57:28;8.90;99.90
10042;DHT22;5061;49.068;12.058;2024-02-21T17:00:49;8.90;99.90
10042;DHT22;5061;49.068;12.058;2024-02-21T17:04:09;8.80;99.90
10042;DHT22;5061;49.068;12.058;2024-02-21T17:07:30;8.80;99.90
10042;DHT22;5061;49.068;12.058;2024-02-21T17:10:51;8.70;99.90
10042;DHT22;5061;49.068;12.058;2024-02-21T17:14:12;8.60;99.90
10042;DHT22;5061;49.068;12.058;2024-02-21T17:17:34;8.70;99.90
10042;DHT22;5061;49.068;12.058;2024-02-21T17:20:55;8.60;99.90
10042;DHT22;5061;49.068;12.058;2024-02-21T17:24:16;8.60;99.90
10042;DHT22;5061;49.068;12.058;2024-02-21T17:27:37;8.50;99.90
10042;DHT22;5061;49.068;12.058;2024-02-21T17:30:58;8.40;99.90
10042;DHT22;5061;49.068;12.058;2024-02-21T17:34:18;8.40;99.90
10042;DHT22;5061;49.068;12.058;2024-02-21T17:37:41;8.30;99.90
10042;DHT22;5061;49.068;12.058;2024-02-21T17:41:01;8.30;99.90
10042;DHT22;5061;49.068;12.058;2024-02-21T17:44:22;8.20;99.90
10042;DHT22;5061;49.068;12.058;2024-02-21T17:47:45;8.10;99.90
10042;DHT22;5061;49.068;12.058;2024-02-21T17:51:07;8.10;99.90
10042;DHT22;5061;49.068;12.058;2024-02-21T17:54:27;8.00;99.90
10042;DHT22;5061;49.068;12.058;2024-02-21T17:57:48;7.90;99.90
10042;DHT22;5061;49.068;12.058;2024-02-21T18:01:10;7.90;99.90
10042;DHT22;5061;49.068;12.058;2024-02-21T18:04:30;7.80;99.90
10042;DHT22;5061;49.068;12.058;2024-02-21T18:07:51;7.80;99.90
10042;DHT22;5061;49.068;12.058;2024-02-21T18:11:12;7.70;99.90
10042;DHT22;5061;49.068;12.058;2024-02-21T18:14:33;7.60;99.90
10042;DHT22;5061;49.068;12.058;2024-02-21T18:17:53;7.60;99.90
10042;DHT22;5061;49.068;12.058;2024-02-21T18:21:14;7.60;99.90
10042;DHT22;5061;49.068;12.058;2024-02-21T18:24:34;7.60;99.90
10042;DHT22;5061;49.068;12.058;2024-02-21T18:27:55;7.60;99.90
10042;DHT22;5061;49.068;12.058;2024-02-21T18:31:16;7.60;99.90
10042;DHT22;5061;49.068;12.058;2024-02-21T18:34:37;7.60;99.90
10042;DHT22;5061;49.068;12.058;2024-02-21T18:37:58;7.60;99.90
10042;DHT22;5061;49.068;12.058;2024-02-21T18:41:19;7.60;99.90
10042;DHT22;5061;49.068;12.058;2024-02-21T18:44:39;7.60;99.90
10042;DHT22;5061;49.068;12.058;2024-02-21T18:48:00;7.50;99.90
10042;DHT22;5061;49.068;12.058;2024-02-21T18:51:21;7.60;99.90
10042;DHT22;5061;49.068;12.058;2024-02-21T18:54:41;7.50;99.90
10042;DHT22;5061;49.068;12.058;2024-02-21T18:58:02;7.50;99.90
10042;DHT22;5061;49.068;12.058;2024-02-21T19:01:23;7.50;99.90
10042;DHT22;5061;49.068;12.058;2024-02-21T19:04:44;7.60;99.90
10042;DHT22;5061;49.068;12.058;2024-02-21T19:08:05;7.60;99.90
10042;DHT22;5061;49.068;12.058;2024-02-21T19:11:25;7.60;99.90
10042;DHT22;5061;49.068;12.058;2024-02-21T19:14:46;7.60;99.90
10042;DHT22;5061;49.068;12.058;2024-02-21T19:18:07;7.50;99.90
10042;DHT22;5061;49.068;12.058;2024-02-21T19:21:28;7.60;99.90
10042;DHT22;5061;49.068;12.058;2024-02-21T19:24:48;7.50;99.90
10042;DHT22;5061;49.068;12.058;2024-02-21T19:28:09;7.50;99.90
10042;DHT22;5061;49.068;12.058;2024-02-21T19:31:33;7.50;99.90
10042;DHT22;5061;49.068;12.058;2024-02-21T19:34:54;7.50;99.90
10042;DHT22;5061;49.068;12.058;2024-02-21T19:38:14;7.50;99.90
10042;DHT22;5061;49.068;12.058;2024-02-21T19:41:35;7.50;99.90
10042;DHT22;5061;49.068;12.058;2024-02-21T19:44:55;7.50;99.90
10042;DHT22;5061;49.068;12.058;2024-02-21T19:48:16;7.50;99.90
10042;DHT22;5061;49.068;12.058;2024-02-21T19:51:38;7.50;99.90
10042;DHT22;5061;49.068;12.058;2024-02-21T19:54:59;7.50;99.90
10042;DHT22;5061;49.068;12.058;2024-02-21T19:58:20;7.50;99.90
10042;DHT22;5061;49.068;12.058;2024-02-21T20:01:40;7.50;99.90
10042;DHT22;5061;49.068;12.058;2024-02-21T20:05:01;7.50;99.90
10042;DHT22;5061;49.068;12.058;2024-02-21T20:08:22;7.50;99.90
10042;DHT22;5061;49.068;12.058;2024-02-21T20:11:43;7.50;99.90
10042;DHT22;5061;49.068;12.058;2024-02-21T20:15:05;7.50;99.90
10042;DHT22;5061;49.068;12.058;2024-02-21T20:18:26;7.50;99.90
10042;DHT22;5061;49.068;12.058;2024-02-21T20:21:47;7.40;99.90
10042;DHT22;5061;49.068;12.058;2024-02-21T20:25:09;7.40;99.90
10042;DHT22;5061;49.068;12.058;2024-02-21T20:28:30;7.50;99.90
10042;DHT22;5061;49.068;12.058;2024-02-21T20:31:51;7.40;99.90
10042;DHT22;5061;49.068;12.058;2024-02-21T20:35:12;7.40;99.90
10042;DHT22;5061;49.068;12.058;2024-02-21T20:38:33;7.40;99.90
10042;DHT22;5061;49.068;12.058;2024-02-21T20:41:53;7.40;99.90
10042;DHT22;5061;49.068;12.058;2024-02-21T20:45:15;7.40;99.90
10042;DHT22;5061;49.068;12.058;2024-02-21T20:48:36;7.30;99.90
10042;DHT22;5061;49.068;12.058;2024-02-21T20:51:56;7.30;99.90
10042;DHT22;5061;49.068;12.058;2024-02-21T20:55:17;7.40;99.90
10042;DHT22;5061;49.068;12.058;2024-02-21T20:58:44;7.30;99.90
10042;DHT22;5061;49.068;12.058;2024-02-21T21:02:04;7.30;99.90
10042;DHT22;5061;49.068;12.058;2024-02-21T21:05:25;7.30;99.90
10042;DHT22;5061;49.068;12.058;2024-02-21T21:08:46;7.30;99.90
10042;DHT22;5061;49.068;12.058;2024-02-21T21:12:07;7.30;99.90
10042;DHT22;5061;49.068;12.058;2024-02-21T21:15:28;7.30;99.90
10042;DHT22;5061;49.068;12.058;2024-02-21T21:18:49;7.20;99.90
10042;DHT22;5061;49.068;12.058;2024-02-21T21:22:10;7.30;99.90
10042;DHT22;5061;49.068;12.058;2024-02-21T21:25:30;7.20;99.90
10042;DHT22;5061;49.068;12.058;2024-02-21T21:28:51;7.20;99.90